sensor_id;sensor_type;location;lat;lon;timestamp;temperature;humidity
20231;DHT22;10274;49.022;9.338;2022-07-25T00:00:04;18.50;1.00
20231;DHT22;10274;49.022;9.338;2022-07-25T00:02:32;18.40;1.00
20231;DHT22;10274;49.022;9.338;2022-07-25T00:04:58;18.30;1.00
20231;DHT22;10274;49.022;9.338;2022-07-25T00:07:25;18.30;1.00
20231;DHT22;10274;49.022;9.338;2022-07-25T00:09:52;18.20;1.00
20231;DHT22;10274;49.022;9.338;2022-07-25T00:12:20;18.20;1.00
20231;DHT22;10274;49.022;9.338;2022-07-25T00:14:47;18.20;1.00
20231;DHT22;10274;49.022;9.338;2022-07-25T00:17:14;18.20;1.00
20231;DHT22;10274;49.022;9.338;2022-07-25T00:19:40;18.10;9.30
20231;DHT22;10274;49.022;9.338;2022-07-25T00:22:07;17.80;17.60
20231;DHT22;10274;49.022;9.338;2022-07-25T00:24:34;17.80;26.40
20231;DHT22;10274;49.022;9.338;2022-07-25T00:27:00;17.90;26.70
20231;DHT22;10274;49.022;9.338;2022-07-25T00:29:29;18.00;26.30
20231;DHT22;10274;49.022;9.338;2022-07-25T00:31:56;17.90;21.00
20231;DHT22;10274;49.022;9.338;2022-07-25T00:34:23;18.00;26.70
20231;DHT22;10274;49.022;9.338;2022-07-25T00:36:49;18.00;20.30
20231;DHT22;10274;49.022;9.338;2022-07-25T00:39:16;18.00;17.80
20231;DHT22;10274;49.022;9.338;2022-07-25T00:41:43;17.60;29.00
20231;DHT22;10274;49.022;9.338;2022-07-25T00:44:20;17.60;47.40
20231;DHT22;10274;49.022;9.338;2022-07-25T00:46:48;17.70;45.10
20231;DHT22;10274;49.022;9.338;2022-07-25T00:49:15;17.80;30.80
20231;DHT22;10274;49.022;9.338;2022-07-25T00:51:42;17.90;24.10
20231;DHT22;10274;49.022;9.338;2022-07-25T00:54:09;17.90;25.50
20231;DHT22;10274;49.022;9.338;2022-07-25T00:56:36;17.90;15.80
20231;DHT22;10274;49.022;9.338;2022-07-25T00:59:03;17.80;16.40
20231;DHT22;10274;49.022;9.338;2022-07-25T01:01:30;17.60;29.40
20231;DHT22;10274;49.022;9.338;2022-07-25T01:03:58;17.50;44.40
20231;DHT22;10274;49.022;9.338;2022-07-25T01:06:25;17.60;42.20
20231;DHT22;10274;49.022;9.338;2022-07-25T01:08:53;17.60;45.20
20231;DHT22;10274;49.022;9.338;2022-07-25T01:11:21;17.50;50.70
20231;DHT22;10274;49.022;9.338;2022-07-25T01:13:48;17.40;53.50
20231;DHT22;10274;49.022;9.338;2022-07-25T01:16:14;17.30;65.30
20231;DHT22;10274;49.022;9.338;2022-07-25T01:18:41;17.30;69.30
20231;DHT22;10274;49.022;9.338;2022-07-25T01:21:09;17.40;62.10
20231;DHT22;10274;49.022;9.338;2022-07-25T01:23:36;17.20;65.60
20231;DHT22;10274;49.022;9.338;2022-07-25T01:26:03;17.10;77.60
20231;DHT22;10274;49.022;9.338;2022-07-25T01:28:30;17.20;89.50
20231;DHT22;10274;49.022;9.338;2022-07-25T01:30:57;17.30;84.70
20231;DHT22;10274;49.022;9.338;2022-07-25T01:33:24;17.30;88.80
20231;DHT22;10274;49.022;9.338;2022-07-25T01:35:51;17.30;86.00
20231;DHT22;10274;49.022;9.338;2022-07-25T01:38:19;17.30;79.60
20231;DHT22;10274;49.022;9.338;2022-07-25T01:40:46;17.20;80.00
20231;DHT22;10274;49.022;9.338;2022-07-25T01:43:12;17.20;91.10
20231;DHT22;10274;49.022;9.338;2022-07-25T01:45:39;17.10;88.50
20231;DHT22;10274;49.022;9.338;2022-07-25T01:48:06;17.10;93.10
20231;DHT22;10274;49.022;9.338;2022-07-25T01:50:33;17.00;90.60
20231;DHT22;10274;49.022;9.338;2022-07-25T01:53:00;17.00;92.90
20231;DHT22;10274;49.022;9.338;2022-07-25T01:55:28;16.90;97.80
20231;DHT22;10274;49.022;9.338;2022-07-25T01:57:55;17.00;96.60
20231;DHT22;10274;49.022;9.338;2022-07-25T02:00:21;17.10;95.80
20231;DHT22;10274;49.022;9.338;2022-07-25T02:02:48;17.10;97.10
20231;DHT22;10274;49.022;9.338;2022-07-25T02:05:35;17.00;97.60
20231;DHT22;10274;49.022;9.338;2022-07-25T02:08:02;16.90;99.10
20231;DHT22;10274;49.022;9.338;2022-07-25T02:10:30;16.90;99.90
20231;DHT22;10274;49.022;9.338;2022-07-25T02:12:58;16.80;99.90
20231;DHT22;10274;49.022;9.338;2022-07-25T02:15:25;16.80;99.90
20231;DHT22;10274;49.022;9.338;2022-07-25T02:17:52;16.70;99.90
20231;DHT22;10274;49.022;9.338;2022-07-25T02:20:19;16.70;99.90
20231;DHT22;10274;49.022;9.338;2022-07-25T02:22:45;16.70;99.90
20231;DHT22;10274;49.022;9.338;2022-07-25T02:25:12;16.70;99.90
20231;DHT22;10274;49.022;9.338;2022-07-25T02:27:40;16.70;99.90
20231;DHT22;10274;49.022;9.338;2022-07-25T02:30:08;16.80;99.90
20231;DHT22;10274;49.022;9.338;2022-07-25T02:32:34;16.80;99.90
20231;DHT22;10274;49.022;9.338;2022-07-25T02:35:01;16.70;99.90
20231;DHT22;10274;49.022;9.338;2022-07-25T02:37:28;16.80;99.90
20231;DHT22;10274;49.022;9.338;2022-07-25T02:39:55;17.00;99.90
20231;DHT22;10274;49.022;9.338;2022-07-25T02:42:21;17.00;99.90
20231;DHT22;10274;49.022;9.338;2022-07-25T02:44:49;17.10;99.00
20231;DHT22;10274;49.022;9.338;2022-07-25T02:47:16;17.10;98.60
20231;DHT22;10274;49.022;9.338;2022-07-25T02:49:43;17.10;99.70
20231;DHT22;10274;49.022;9.338;2022-07-25T02:52:10;17.10;99.40
20231;DHT22;10274;49.022;9.338;2022-07-25T02:54:36;17.20;92.60
20231;DHT22;10274;49.022;9.338;2022-07-25T02:57:03;17.10;94.80
20231;DHT22;10274;49.022;9.338;2022-07-25T02:59:30;17.20;93.50
20231;DHT22;10274;49.022;9.338;2022-07-25T03:01:58;17.10;92.10
20231;DHT22;10274;49.022;9.338;2022-07-25T03:04:25;17.10;89.80
20231;DHT22;10274;49.022;9.338;2022-07-25T03:06:52;17.00;95.40
20231;DHT22;10274;49.022;9.338;2022-07-25T03:09:18;17.00;99.30
20231;DHT22;10274;49.022;9.338;2022-07-25T03:11:45;17.10;93.10
20231;DHT22;10274;49.022;9.338;2022-07-25T03:14:12;17.20;91.10
20231;DHT22;10274;49.022;9.338;2022-07-25T03:16:39;17.30;79.70
20231;DHT22;10274;49.022;9.338;2022-07-25T03:19:07;17.30;87.70
20231;DHT22;10274;49.022;9.338;2022-07-25T03:21:36;17.30;89.20
20231;DHT22;10274;49.022;9.338;2022-07-25T03:24:03;17.30;84.90
20231;DHT22;10274;49.022;9.338;2022-07-25T03:26:30;17.20;92.80
20231;DHT22;10274;49.022;9.338;2022-07-25T03:28:56;17.10;95.40
20231;DHT22;10274;49.022;9.338;2022-07-25T03:31:23;17.20;92.30
20231;DHT22;10274;49.022;9.338;2022-07-25T03:33:50;17.20;94.70
20231;DHT22;10274;49.022;9.338;2022-07-25T03:36:18;17.00;95.30
20231;DHT22;10274;49.022;9.338;2022-07-25T03:38:45;16.90;97.50
20231;DHT22;10274;49.022;9.338;2022-07-25T03:41:12;17.00;97.40
20231;DHT22;10274;49.022;9.338;2022-07-25T03:43:38;17.00;99.70
20231;DHT22;10274;49.022;9.338;2022-07-25T03:46:05;17.00;95.30
20231;DHT22;10274;49.022;9.338;2022-07-25T03:48:32;17.10;95.20
20231;DHT22;10274;49.022;9.338;2022-07-25T03:50:59;17.00;95.40
20231;DHT22;10274;49.022;9.338;2022-07-25T03:53:27;17.10;96.70
20231;DHT22;10274;49.022;9.338;2022-07-25T03:55:53;17.20;90.70
20231;DHT22;10274;49.022;9.338;2022-07-25T03:58:20;17.30;80.70
20231;DHT22;10274;49.022;9.338;2022-07-25T04:00:47;17.40;65.90
20231;DHT22;10274;49.022;9.338;2022-07-25T04:03:14;17.50;62.20
20231;DHT22;10274;49.022;9.338;2022-07-25T04:05:41;17.50;58.50
20231;DHT22;10274;49.022;9.338;2022-07-25T04:08:07;17.50;57.70
20231;DHT22;10274;49.022;9.338;2022-07-25T04:10:35;17.50;57.90
20231;DHT22;10274;49.022;9.338;2022-07-25T04:13:02;17.50;58.60
20231;DHT22;10274;49.022;9.338;2022-07-25T04:15:29;17.50;58.60
20231;DHT22;10274;49.022;9.338;2022-07-25T04:17:55;17.50;66.50
20231;DHT22;10274;49.022;9.338;2022-07-25T04:20:22;17.20;70.70
20231;DHT22;10274;49.022;9.338;2022-07-25T04:22:49;17.30;92.20
20231;DHT22;10274;49.022;9.338;2022-07-25T04:25:15;17.20;94.30
20231;DHT22;10274;49.022;9.338;2022-07-25T04:27:44;17.40;79.10
20231;DHT22;10274;49.022;9.338;2022-07-25T04:30:11;17.40;77.80
20231;DHT22;10274;49.022;9.338;2022-07-25T04:32:38;17.40;83.90
20231;DHT22;10274;49.022;9.338;2022-07-25T04:35:06;17.40;83.30
20231;DHT22;10274;49.022;9.338;2022-07-25T04:37:33;17.50;88.20
20231;DHT22;10274;49.022;9.338;2022-07-25T04:40:02;17.50;84.80
20231;DHT22;10274;49.022;9.338;2022-07-25T04:42:29;17.40;95.10
20231;DHT22;10274;49.022;9.338;2022-07-25T04:44:57;17.50;93.40
20231;DHT22;10274;49.022;9.338;2022-07-25T04:47:23;17.40;97.70
20231;DHT22;10274;49.022;9.338;2022-07-25T04:49:50;17.50;99.90
20231;DHT22;10274;49.022;9.338;2022-07-25T04:52:17;17.40;99.90
20231;DHT22;10274;49.022;9.338;2022-07-25T04:54:43;17.30;99.90
20231;DHT22;10274;49.022;9.338;2022-07-25T04:57:10;17.30;99.90
20231;DHT22;10274;49.022;9.338;2022-07-25T04:59:37;17.40;99.90
20231;DHT22;10274;49.022;9.338;2022-07-25T05:02:05;17.40;99.90
20231;DHT22;10274;49.022;9.338;2022-07-25T05:04:31;17.50;99.90
20231;DHT22;10274;49.022;9.338;2022-07-25T05:06:58;17.70;99.90
20231;DHT22;10274;49.022;9.338;2022-07-25T05:09:26;17.60;96.30
20231;DHT22;10274;49.022;9.338;2022-07-25T05:11:53;17.80;95.60
20231;DHT22;10274;49.022;9.338;2022-07-25T05:14:20;17.90;95.20
20231;DHT22;10274;49.022;9.338;2022-07-25T05:16:46;18.10;67.10
20231;DHT22;10274;49.022;9.338;2022-07-25T05:19:14;18.30;55.70
20231;DHT22;10274;49.022;9.338;2022-07-25T05:21:41;18.50;63.60
20231;DHT22;10274;49.022;9.338;2022-07-25T05:24:08;18.60;43.10
20231;DHT22;10274;49.022;9.338;2022-07-25T05:26:34;18.60;51.60
20231;DHT22;10274;49.022;9.338;2022-07-25T05:29:01;18.60;63.00
20231;DHT22;10274;49.022;9.338;2022-07-25T05:31:28;18.80;93.10
20231;DHT22;10274;49.022;9.338;2022-07-25T05:33:54;19.00;83.90
20231;DHT22;10274;49.022;9.338;2022-07-25T05:36:22;19.20;86.00
20231;DHT22;10274;49.022;9.338;2022-07-25T05:38:49;19.40;47.90
20231;DHT22;10274;49.022;9.338;2022-07-25T05:41:16;19.60;68.10
20231;DHT22;10274;49.022;9.338;2022-07-25T05:43:42;19.70;18.10
20231;DHT22;10274;49.022;9.338;2022-07-25T05:46:11;19.80;12.10
20231;DHT22;10274;49.022;9.338;2022-07-25T05:48:38;19.90;1.00
20231;DHT22;10274;49.022;9.338;2022-07-25T05:51:05;20.10;13.70
20231;DHT22;10274;49.022;9.338;2022-07-25T05:53:33;20.20;1.00
20231;DHT22;10274;49.022;9.338;2022-07-25T05:56:00;20.50;1.00
20231;DHT22;10274;49.022;9.338;2022-07-25T05:58:27;20.70;1.00
20231;DHT22;10274;49.022;9.338;2022-07-25T06:00:54;20.80;1.00
20231;DHT22;10274;49.022;9.338;2022-07-25T06:03:20;21.00;1.00
20231;DHT22;10274;49.022;9.338;2022-07-25T06:05:47;21.20;1.00
20231;DHT22;10274;49.022;9.338;2022-07-25T06:08:15;21.40;1.00
20231;DHT22;10274;49.022;9.338;2022-07-25T06:10:43;21.50;1.00
20231;DHT22;10274;49.022;9.338;2022-07-25T06:13:10;21.60;1.00
20231;DHT22;10274;49.022;9.338;2022-07-25T06:15:36;22.00;1.00
20231;DHT22;10274;49.022;9.338;2022-07-25T06:18:03;22.10;1.00
20231;DHT22;10274;49.022;9.338;2022-07-25T06:20:30;22.10;1.00
20231;DHT22;10274;49.022;9.338;2022-07-25T06:22:57;22.60;1.00
20231;DHT22;10274;49.022;9.338;2022-07-25T06:25:23;22.80;1.00
20231;DHT22;10274;49.022;9.338;2022-07-25T06:27:51;23.30;1.00
20231;DHT22;10274;49.022;9.338;2022-07-25T06:30:18;23.40;1.00
20231;DHT22;10274;49.022;9.338;2022-07-25T06:32:45;23.70;1.00
20231;DHT22;10274;49.022;9.338;2022-07-25T06:35:12;24.00;99.90
20231;DHT22;10274;49.022;9.338;2022-07-25T06:37:38;24.20;99.90
20231;DHT22;10274;49.022;9.338;2022-07-25T06:40:06;24.50;99.90
20231;DHT22;10274;49.022;9.338;2022-07-25T06:42:37;24.70;1.00
20231;DHT22;10274;49.022;9.338;2022-07-25T06:45:06;25.00;99.90
20231;DHT22;10274;49.022;9.338;2022-07-25T06:47:33;25.20;63.00
20231;DHT22;10274;49.022;9.338;2022-07-25T06:50:00;25.40;1.00
20231;DHT22;10274;49.022;9.338;2022-07-25T06:52:27;25.50;1.00
20231;DHT22;10274;49.022;9.338;2022-07-25T06:54:54;25.70;99.90
20231;DHT22;10274;49.022;9.338;2022-07-25T06:57:20;25.80;99.90
20231;DHT22;10274;49.022;9.338;2022-07-25T06:59:47;25.80;99.90
20231;DHT22;10274;49.022;9.338;2022-07-25T07:02:16;26.00;99.90
20231;DHT22;10274;49.022;9.338;2022-07-25T07:04:43;26.20;1.00
20231;DHT22;10274;49.022;9.338;2022-07-25T07:07:09;26.30;1.00
20231;DHT22;10274;49.022;9.338;2022-07-25T07:09:36;26.40;1.00
20231;DHT22;10274;49.022;9.338;2022-07-25T07:12:04;26.50;99.90
20231;DHT22;10274;49.022;9.338;2022-07-25T07:14:30;26.80;1.00
20231;DHT22;10274;49.022;9.338;2022-07-25T07:16:57;26.90;99.90
20231;DHT22;10274;49.022;9.338;2022-07-25T07:19:25;27.00;33.60
20231;DHT22;10274;49.022;9.338;2022-07-25T07:21:52;27.00;1.00
20231;DHT22;10274;49.022;9.338;2022-07-25T07:24:18;27.10;1.00
20231;DHT22;10274;49.022;9.338;2022-07-25T07:26:45;27.30;1.00
20231;DHT22;10274;49.022;9.338;2022-07-25T07:29:12;27.50;1.00
20231;DHT22;10274;49.022;9.338;2022-07-25T07:31:39;27.60;1.00
20231;DHT22;10274;49.022;9.338;2022-07-25T07:34:06;27.80;1.00
20231;DHT22;10274;49.022;9.338;2022-07-25T07:36:34;27.80;1.00
20231;DHT22;10274;49.022;9.338;2022-07-25T07:39:00;28.00;1.00
20231;DHT22;10274;49.022;9.338;2022-07-25T07:41:27;28.20;1.00
20231;DHT22;10274;49.022;9.338;2022-07-25T07:43:54;28.30;1.00
20231;DHT22;10274;49.022;9.338;2022-07-25T07:46:20;28.50;1.00
20231;DHT22;10274;49.022;9.338;2022-07-25T07:48:47;28.50;1.00
20231;DHT22;10274;49.022;9.338;2022-07-25T07:51:14;28.60;1.00
20231;DHT22;10274;49.022;9.338;2022-07-25T07:53:42;28.60;1.00
20231;DHT22;10274;49.022;9.338;2022-07-25T07:56:26;29.00;1.00
20231;DHT22;10274;49.022;9.338;2022-07-25T07:58:53;28.90;1.00
20231;DHT22;10274;49.022;9.338;2022-07-25T08:01:20;29.10;1.00
20231;DHT22;10274;49.022;9.338;2022-07-25T08:03:47;29.10;1.00
20231;DHT22;10274;49.022;9.338;2022-07-25T08:06:14;29.20;1.00
20231;DHT22;10274;49.022;9.338;2022-07-25T08:08:42;29.40;1.00
20231;DHT22;10274;49.022;9.338;2022-07-25T08:11:09;29.70;1.00
20231;DHT22;10274;49.022;9.338;2022-07-25T08:13:35;30.00;1.00
20231;DHT22;10274;49.022;9.338;2022-07-25T08:16:03;30.40;1.00
20231;DHT22;10274;49.022;9.338;2022-07-25T08:18:31;32.10;1.00
20231;DHT22;10274;49.022;9.338;2022-07-25T08:20:58;31.90;1.00
20231;DHT22;10274;49.022;9.338;2022-07-25T08:23:27;30.90;1.00
20231;DHT22;10274;49.022;9.338;2022-07-25T08:25:57;31.80;89.50
20231;DHT22;10274;49.022;9.338;2022-07-25T08:28:26;33.30;99.90
20231;DHT22;10274;49.022;9.338;2022-07-25T08:30:53;33.30;1.00
20231;DHT22;10274;49.022;9.338;2022-07-25T08:33:20;33.40;1.00
20231;DHT22;10274;49.022;9.338;2022-07-25T08:35:48;33.60;1.00
20231;DHT22;10274;49.022;9.338;2022-07-25T08:38:16;33.50;1.00
20231;DHT22;10274;49.022;9.338;2022-07-25T08:40:43;33.90;1.00
20231;DHT22;10274;49.022;9.338;2022-07-25T08:43:12;34.40;7.90
20231;DHT22;10274;49.022;9.338;2022-07-25T08:45:43;34.40;93.40
20231;DHT22;10274;49.022;9.338;2022-07-25T08:48:10;34.30;96.00
20231;DHT22;10274;49.022;9.338;2022-07-25T08:50:37;34.30;99.90
20231;DHT22;10274;49.022;9.338;2022-07-25T08:53:04;34.70;99.90
20231;DHT22;10274;49.022;9.338;2022-07-25T08:55:31;35.10;99.90
20231;DHT22;10274;49.022;9.338;2022-07-25T08:57:58;35.00;99.90
20231;DHT22;10274;49.022;9.338;2022-07-25T09:00:27;35.30;99.90
20231;DHT22;10274;49.022;9.338;2022-07-25T09:02:55;34.90;99.90
20231;DHT22;10274;49.022;9.338;2022-07-25T09:05:23;35.40;99.90
20231;DHT22;10274;49.022;9.338;2022-07-25T09:07:51;35.40;99.90
20231;DHT22;10274;49.022;9.338;2022-07-25T09:10:20;35.50;99.90
20231;DHT22;10274;49.022;9.338;2022-07-25T09:12:51;36.50;99.90
20231;DHT22;10274;49.022;9.338;2022-07-25T09:15:27;36.00;99.90
20231;DHT22;10274;49.022;9.338;2022-07-25T09:17:55;35.80;99.90
20231;DHT22;10274;49.022;9.338;2022-07-25T09:20:23;35.60;99.90
20231;DHT22;10274;49.022;9.338;2022-07-25T09:22:51;35.90;99.90
20231;DHT22;10274;49.022;9.338;2022-07-25T09:25:23;36.20;99.90
20231;DHT22;10274;49.022;9.338;2022-07-25T09:27:50;36.70;99.90
20231;DHT22;10274;49.022;9.338;2022-07-25T09:30:18;37.20;99.90
20231;DHT22;10274;49.022;9.338;2022-07-25T09:32:46;36.90;99.90
20231;DHT22;10274;49.022;9.338;2022-07-25T09:35:13;37.20;99.90
20231;DHT22;10274;49.022;9.338;2022-07-25T09:37:40;36.90;99.90
20231;DHT22;10274;49.022;9.338;2022-07-25T09:40:15;37.00;99.90
20231;DHT22;10274;49.022;9.338;2022-07-25T09:42:49;36.60;99.90
20231;DHT22;10274;49.022;9.338;2022-07-25T09:45:16;36.90;99.90
20231;DHT22;10274;49.022;9.338;2022-07-25T09:47:53;37.30;99.90
20231;DHT22;10274;49.022;9.338;2022-07-25T09:50:21;37.60;99.90
20231;DHT22;10274;49.022;9.338;2022-07-25T09:52:50;37.60;99.90
20231;DHT22;10274;49.022;9.338;2022-07-25T09:55:17;37.40;99.90
20231;DHT22;10274;49.022;9.338;2022-07-25T09:57:45;37.20;99.90
20231;DHT22;10274;49.022;9.338;2022-07-25T10:00:15;37.70;99.90
20231;DHT22;10274;49.022;9.338;2022-07-25T10:02:49;37.80;99.90
20231;DHT22;10274;49.022;9.338;2022-07-25T10:05:24;36.80;99.90
20231;DHT22;10274;49.022;9.338;2022-07-25T10:07:55;36.70;99.90
20231;DHT22;10274;49.022;9.338;2022-07-25T10:10:28;36.50;99.90
20231;DHT22;10274;49.022;9.338;2022-07-25T10:13:00;36.30;99.90
20231;DHT22;10274;49.022;9.338;2022-07-25T10:15:39;36.50;99.90
20231;DHT22;10274;49.022;9.338;2022-07-25T10:18:07;36.50;99.90
20231;DHT22;10274;49.022;9.338;2022-07-25T10:20:35;37.20;99.90
20231;DHT22;10274;49.022;9.338;2022-07-25T10:23:02;38.00;99.90
20231;DHT22;10274;49.022;9.338;2022-07-25T10:25:29;37.50;99.60
20231;DHT22;10274;49.022;9.338;2022-07-25T10:27:58;36.40;99.90
20231;DHT22;10274;49.022;9.338;2022-07-25T10:30:34;37.40;99.90
20231;DHT22;10274;49.022;9.338;2022-07-25T10:33:02;37.90;99.90
20231;DHT22;10274;49.022;9.338;2022-07-25T10:35:30;37.70;99.70
20231;DHT22;10274;49.022;9.338;2022-07-25T10:37:58;38.30;99.70
20231;DHT22;10274;49.022;9.338;2022-07-25T10:40:37;38.40;99.40
20231;DHT22;10274;49.022;9.338;2022-07-25T10:43:11;38.30;98.10
20231;DHT22;10274;49.022;9.338;2022-07-25T10:45:40;38.00;97.90
20231;DHT22;10274;49.022;9.338;2022-07-25T10:48:09;37.30;97.60
20231;DHT22;10274;49.022;9.338;2022-07-25T10:50:46;36.80;96.50
20231;DHT22;10274;49.022;9.338;2022-07-25T10:53:15;37.00;97.60
20231;DHT22;10274;49.022;9.338;2022-07-25T10:55:56;37.00;98.10
20231;DHT22;10274;49.022;9.338;2022-07-25T10:58:23;38.40;97.80
20231;DHT22;10274;49.022;9.338;2022-07-25T11:00:50;39.10;97.70
20231;DHT22;10274;49.022;9.338;2022-07-25T11:03:17;39.40;97.30
20231;DHT22;10274;49.022;9.338;2022-07-25T11:05:44;38.50;97.10
20231;DHT22;10274;49.022;9.338;2022-07-25T11:08:11;39.10;96.50
20231;DHT22;10274;49.022;9.338;2022-07-25T11:10:39;38.90;97.00
20231;DHT22;10274;49.022;9.338;2022-07-25T11:13:09;38.70;95.30
20231;DHT22;10274;49.022;9.338;2022-07-25T11:15:37;39.20;96.70
20231;DHT22;10274;49.022;9.338;2022-07-25T11:18:04;38.80;95.20
20231;DHT22;10274;49.022;9.338;2022-07-25T11:20:31;39.00;96.10
20231;DHT22;10274;49.022;9.338;2022-07-25T11:22:57;39.80;95.30
20231;DHT22;10274;49.022;9.338;2022-07-25T11:25:24;39.70;95.60
20231;DHT22;10274;49.022;9.338;2022-07-25T11:27:57;38.60;95.10
20231;DHT22;10274;49.022;9.338;2022-07-25T11:30:25;39.30;96.50
20231;DHT22;10274;49.022;9.338;2022-07-25T11:32:55;39.80;96.00
20231;DHT22;10274;49.022;9.338;2022-07-25T11:35:25;40.10;96.10
20231;DHT22;10274;49.022;9.338;2022-07-25T11:37:53;39.40;95.20
20231;DHT22;10274;49.022;9.338;2022-07-25T11:40:20;38.60;95.40
20231;DHT22;10274;49.022;9.338;2022-07-25T11:42:49;38.60;95.00
20231;DHT22;10274;49.022;9.338;2022-07-25T11:45:20;39.70;95.80
20231;DHT22;10274;49.022;9.338;2022-07-25T11:47:49;39.60;96.00
20231;DHT22;10274;49.022;9.338;2022-07-25T11:50:16;39.40;94.30
20231;DHT22;10274;49.022;9.338;2022-07-25T11:52:43;39.20;94.60
20231;DHT22;10274;49.022;9.338;2022-07-25T11:55:16;39.10;96.10
20231;DHT22;10274;49.022;9.338;2022-07-25T11:57:45;39.00;94.80
20231;DHT22;10274;49.022;9.338;2022-07-25T12:00:16;38.80;95.00
20231;DHT22;10274;49.022;9.338;2022-07-25T12:02:44;38.20;94.20
20231;DHT22;10274;49.022;9.338;2022-07-25T12:05:14;38.10;96.00
20231;DHT22;10274;49.022;9.338;2022-07-25T12:07:43;37.70;96.60
20231;DHT22;10274;49.022;9.338;2022-07-25T12:10:13;38.20;96.60
20231;DHT22;10274;49.022;9.338;2022-07-25T12:12:47;37.50;95.10
20231;DHT22;10274;49.022;9.338;2022-07-25T12:15:17;37.30;97.10
20231;DHT22;10274;49.022;9.338;2022-07-25T12:17:46;37.50;95.40
20231;DHT22;10274;49.022;9.338;2022-07-25T12:20:14;37.30;95.40
20231;DHT22;10274;49.022;9.338;2022-07-25T12:22:42;37.70;95.80
20231;DHT22;10274;49.022;9.338;2022-07-25T12:25:10;38.20;94.90
20231;DHT22;10274;49.022;9.338;2022-07-25T12:27:37;38.40;96.40
20231;DHT22;10274;49.022;9.338;2022-07-25T12:30:06;38.90;96.00
20231;DHT22;10274;49.022;9.338;2022-07-25T12:32:33;38.90;95.30
20231;DHT22;10274;49.022;9.338;2022-07-25T12:35:02;38.70;97.00
20231;DHT22;10274;49.022;9.338;2022-07-25T12:37:29;38.70;96.30
20231;DHT22;10274;49.022;9.338;2022-07-25T12:39:55;38.40;94.50
20231;DHT22;10274;49.022;9.338;2022-07-25T12:42:22;38.40;95.80
20231;DHT22;10274;49.022;9.338;2022-07-25T12:44:49;37.90;95.70
20231;DHT22;10274;49.022;9.338;2022-07-25T12:47:16;38.00;97.00
20231;DHT22;10274;49.022;9.338;2022-07-25T12:49:42;38.00;96.10
20231;DHT22;10274;49.022;9.338;2022-07-25T12:52:11;37.50;96.40
20231;DHT22;10274;49.022;9.338;2022-07-25T12:54:38;36.90;95.60
20231;DHT22;10274;49.022;9.338;2022-07-25T12:57:05;36.50;96.50
20231;DHT22;10274;49.022;9.338;2022-07-25T12:59:32;36.20;97.30
20231;DHT22;10274;49.022;9.338;2022-07-25T13:01:58;35.80;96.40
20231;DHT22;10274;49.022;9.338;2022-07-25T13:04:25;36.00;98.80
20231;DHT22;10274;49.022;9.338;2022-07-25T13:06:53;35.80;97.90
20231;DHT22;10274;49.022;9.338;2022-07-25T13:09:21;36.00;96.70
20231;DHT22;10274;49.022;9.338;2022-07-25T13:11:48;36.60;96.50
20231;DHT22;10274;49.022;9.338;2022-07-25T13:14:15;36.60;96.90
20231;DHT22;10274;49.022;9.338;2022-07-25T13:16:42;36.10;96.80
20231;DHT22;10274;49.022;9.338;2022-07-25T13:19:09;35.60;96.70
20231;DHT22;10274;49.022;9.338;2022-07-25T13:21:35;35.60;96.50
20231;DHT22;10274;49.022;9.338;2022-07-25T13:24:03;35.10;97.10
20231;DHT22;10274;49.022;9.338;2022-07-25T13:26:31;34.90;96.80
20231;DHT22;10274;49.022;9.338;2022-07-25T13:31:26;34.90;98.00
20231;DHT22;10274;49.022;9.338;2022-07-25T13:33:52;34.50;97.30
20231;DHT22;10274;49.022;9.338;2022-07-25T13:36:19;34.50;99.10
20231;DHT22;10274;49.022;9.338;2022-07-25T13:38:46;34.20;99.90
20231;DHT22;10274;49.022;9.338;2022-07-25T13:41:13;34.10;99.90
20231;DHT22;10274;49.022;9.338;2022-07-25T13:43:42;34.00;99.80
20231;DHT22;10274;49.022;9.338;2022-07-25T13:46:08;34.10;99.90
20231;DHT22;10274;49.022;9.338;2022-07-25T13:48:36;34.10;99.90
20231;DHT22;10274;49.022;9.338;2022-07-25T13:51:03;34.20;99.90
20231;DHT22;10274;49.022;9.338;2022-07-25T13:53:29;34.40;99.00
20231;DHT22;10274;49.022;9.338;2022-07-25T13:55:57;34.50;99.10
20231;DHT22;10274;49.022;9.338;2022-07-25T13:58:24;34.50;99.20
20231;DHT22;10274;49.022;9.338;2022-07-25T14:00:52;34.60;99.90
20231;DHT22;10274;49.022;9.338;2022-07-25T14:03:19;34.50;99.00
20231;DHT22;10274;49.022;9.338;2022-07-25T14:05:46;34.50;99.40
20231;DHT22;10274;49.022;9.338;2022-07-25T14:08:13;34.10;99.90
20231;DHT22;10274;49.022;9.338;2022-07-25T14:10:40;33.90;99.90
20231;DHT22;10274;49.022;9.338;2022-07-25T14:13:06;33.50;99.90
20231;DHT22;10274;49.022;9.338;2022-07-25T14:15:33;33.40;99.90
20231;DHT22;10274;49.022;9.338;2022-07-25T14:18:01;33.20;99.90
20231;DHT22;10274;49.022;9.338;2022-07-25T14:20:28;32.90;99.90
20231;DHT22;10274;49.022;9.338;2022-07-25T14:22:55;32.70;99.90
20231;DHT22;10274;49.022;9.338;2022-07-25T14:25:22;32.50;99.90
20231;DHT22;10274;49.022;9.338;2022-07-25T14:27:48;32.50;99.90
20231;DHT22;10274;49.022;9.338;2022-07-25T14:30:15;32.00;99.90
20231;DHT22;10274;49.022;9.338;2022-07-25T14:32:42;31.70;99.90
20231;DHT22;10274;49.022;9.338;2022-07-25T14:35:10;31.40;99.90
20231;DHT22;10274;49.022;9.338;2022-07-25T14:37:37;31.10;99.90
20231;DHT22;10274;49.022;9.338;2022-07-25T14:40:05;31.00;99.90
20231;DHT22;10274;49.022;9.338;2022-07-25T14:42:35;31.00;99.90
20231;DHT22;10274;49.022;9.338;2022-07-25T14:45:03;31.50;99.90
20231;DHT22;10274;49.022;9.338;2022-07-25T14:47:30;31.70;99.90
20231;DHT22;10274;49.022;9.338;2022-07-25T14:49:56;31.90;99.90
20231;DHT22;10274;49.022;9.338;2022-07-25T14:52:24;31.80;99.90
20231;DHT22;10274;49.022;9.338;2022-07-25T14:54:51;31.90;99.90
20231;DHT22;10274;49.022;9.338;2022-07-25T14:57:18;31.90;99.90
20231;DHT22;10274;49.022;9.338;2022-07-25T14:59:45;32.50;99.90
20231;DHT22;10274;49.022;9.338;2022-07-25T15:02:11;32.60;99.90
20231;DHT22;10274;49.022;9.338;2022-07-25T15:04:38;32.70;99.90
20231;DHT22;10274;49.022;9.338;2022-07-25T15:07:05;32.50;99.90
20231;DHT22;10274;49.022;9.338;2022-07-25T15:09:33;32.50;99.90
20231;DHT22;10274;49.022;9.338;2022-07-25T15:12:00;32.20;99.90
20231;DHT22;10274;49.022;9.338;2022-07-25T15:14:26;32.10;99.90
20231;DHT22;10274;49.022;9.338;2022-07-25T15:16:53;32.00;99.90
20231;DHT22;10274;49.022;9.338;2022-07-25T15:19:20;32.00;99.90
20231;DHT22;10274;49.022;9.338;2022-07-25T15:21:47;31.80;99.90
20231;DHT22;10274;49.022;9.338;2022-07-25T15:24:13;31.70;99.90
20231;DHT22;10274;49.022;9.338;2022-07-25T15:26:42;31.70;99.90
20231;DHT22;10274;49.022;9.338;2022-07-25T15:29:08;31.60;99.90
20231;DHT22;10274;49.022;9.338;2022-07-25T15:31:38;31.60;99.90
20231;DHT22;10274;49.022;9.338;2022-07-25T15:34:04;30.70;99.90
20231;DHT22;10274;49.022;9.338;2022-07-25T15:36:31;30.20;99.90